EWG8VB EDDL-EGCC
Flight info
| Callsign | EWG8VB |
|---|---|
| Flight time | N/A |
| Altitude | 36000 |
| Route | SONEB6Z SONEB P64 TENLI L602 SPY DCT RAVLO Y70 OTBED |
| Aircraft | A320/M-SDE3FGHIRWY/LB1 |
Departure
| Time | 2026-05-01 08:10 |
|---|---|
| Airport | Düsseldorf Airport (EDDL) |
Arrival
| Time | N/A |
|---|---|
| Airport | Manchester Airport (EGCC) |
| Time | Latitude | Longitude | Altitude | Speed | Heading |
|---|---|---|---|---|---|
| 2026-05-01 07:27 | 51.28106 | 6.76719 | 128 ft | 0 kts | 276° |
| 2026-05-01 07:59 | 51.28102 | 6.76758 | 127 ft | 4 kts | 291° |
| 2026-05-01 07:59 | 51.28072 | 6.76795 | 127 ft | 1 kts | 17° |
| 2026-05-01 08:00 | 51.28069 | 6.76794 | 129 ft | 0 kts | 17° |
| 2026-05-01 08:04 | 51.28099 | 6.76809 | 129 ft | 8 kts | 18° |
| 2026-05-01 08:04 | 51.28236 | 6.76849 | 129 ft | 10 kts | 6° |
| 2026-05-01 08:05 | 51.28395 | 6.76838 | 125 ft | 11 kts | 323° |
| 2026-05-01 08:05 | 51.28466 | 6.76772 | 123 ft | 12 kts | 355° |
| 2026-05-01 08:05 | 51.28536 | 6.76876 | 125 ft | 17 kts | 53° |
| 2026-05-01 08:06 | 51.28703 | 6.77225 | 128 ft | 20 kts | 53° |
| 2026-05-01 08:06 | 51.28870 | 6.77576 | 124 ft | 19 kts | 52° |
| 2026-05-01 08:07 | 51.29039 | 6.77929 | 127 ft | 18 kts | 52° |
| 2026-05-01 08:07 | 51.29204 | 6.78213 | 136 ft | 16 kts | 5° |
| 2026-05-01 08:08 | 51.29268 | 6.78176 | 138 ft | 0 kts | 316° |
| 2026-05-01 08:09 | 51.29289 | 6.78132 | 139 ft | 6 kts | 302° |
| 2026-05-01 08:09 | 51.29307 | 6.78037 | 138 ft | 12 kts | 263° |
| 2026-05-01 08:09 | 51.29265 | 6.77936 | 136 ft | 12 kts | 233° |
| 2026-05-01 08:10 | 51.28686 | 6.76720 | 126 ft | 131 kts | 232° |
| 2026-05-01 08:10 | 51.27372 | 6.73861 | 946 ft | 167 kts | 226° |
| 2026-05-01 08:11 | 51.27054 | 6.70022 | 1967 ft | 218 kts | 301° |
| 2026-05-01 08:11 | 51.29791 | 6.68219 | 3100 ft | 232 kts | 14° |
| 2026-05-01 08:12 | 51.33290 | 6.69032 | 3931 ft | 277 kts | 9° |
| 2026-05-01 08:12 | 51.35245 | 6.69290 | 4739 ft | 285 kts | 7° |
| 2026-05-01 08:12 | 51.39236 | 6.69668 | 6643 ft | 289 kts | 5° |
| 2026-05-01 08:13 | 51.41251 | 6.69723 | 7531 ft | 291 kts | 3° |
| 2026-05-01 08:13 | 51.43292 | 6.69707 | 8379 ft | 295 kts | 2° |
| 2026-05-01 08:13 | 51.47469 | 6.69635 | 10012 ft | 304 kts | 3° |
| 2026-05-01 08:14 | 51.49614 | 6.69500 | 10601 ft | 319 kts | 353° |
| 2026-05-01 08:14 | 51.51741 | 6.68197 | 10839 ft | 347 kts | 328° |
| 2026-05-01 08:14 | 51.53740 | 6.65828 | 11254 ft | 362 kts | 323° |
| 2026-05-01 08:14 | 51.55753 | 6.63357 | 11943 ft | 367 kts | 323° |
| 2026-05-01 08:15 | 51.57788 | 6.60848 | 12677 ft | 370 kts | 323° |
| 2026-05-01 08:15 | 51.61915 | 6.55763 | 14140 ft | 377 kts | 323° |
| 2026-05-01 08:15 | 51.64006 | 6.53199 | 14792 ft | 380 kts | 323° |
| 2026-05-01 08:16 | 51.66119 | 6.50617 | 15460 ft | 382 kts | 323° |
| 2026-05-01 08:16 | 51.68221 | 6.48057 | 16119 ft | 384 kts | 323° |
| 2026-05-01 08:16 | 51.70360 | 6.45454 | 16776 ft | 387 kts | 323° |
| 2026-05-01 08:16 | 51.72515 | 6.42822 | 17425 ft | 390 kts | 323° |
| 2026-05-01 08:17 | 51.74686 | 6.40159 | 18010 ft | 393 kts | 323° |
| 2026-05-01 08:17 | 51.76867 | 6.37478 | 18642 ft | 396 kts | 323° |
| 2026-05-01 08:17 | 51.79066 | 6.34769 | 19173 ft | 399 kts | 323° |
| 2026-05-01 08:17 | 51.81272 | 6.32045 | 19744 ft | 400 kts | 323° |
| 2026-05-01 08:18 | 51.83492 | 6.29301 | 20294 ft | 402 kts | 323° |
| 2026-05-01 08:18 | 51.87983 | 6.23747 | 21259 ft | 409 kts | 323° |
| 2026-05-01 08:19 | 51.92529 | 6.18114 | 22323 ft | 413 kts | 323° |
| 2026-05-01 08:19 | 51.94819 | 6.15270 | 22836 ft | 415 kts | 323° |
| 2026-05-01 08:19 | 51.97077 | 6.12460 | 23422 ft | 414 kts | 323° |
| 2026-05-01 08:19 | 51.99367 | 6.09607 | 23924 ft | 416 kts | 323° |
| 2026-05-01 08:20 | 52.01665 | 6.06738 | 24361 ft | 417 kts | 323° |
| 2026-05-01 08:20 | 52.03971 | 6.03860 | 24800 ft | 418 kts | 323° |
| 2026-05-01 08:20 | 52.06285 | 6.00971 | 25173 ft | 421 kts | 323° |
| 2026-05-01 08:20 | 52.08610 | 5.98064 | 25575 ft | 423 kts | 323° |
| 2026-05-01 08:21 | 52.10949 | 5.95136 | 25948 ft | 425 kts | 323° |
| 2026-05-01 08:21 | 52.13290 | 5.92195 | 26327 ft | 426 kts | 323° |
| 2026-05-01 08:21 | 52.15644 | 5.89233 | 26721 ft | 428 kts | 322° |
| 2026-05-01 08:21 | 52.18013 | 5.86248 | 27035 ft | 431 kts | 322° |
| 2026-05-01 08:22 | 52.20394 | 5.83247 | 27395 ft | 433 kts | 322° |
| 2026-05-01 08:22 | 52.22777 | 5.80238 | 27757 ft | 435 kts | 322° |
| 2026-05-01 08:22 | 52.25173 | 5.77206 | 28135 ft | 437 kts | 322° |
| 2026-05-01 08:22 | 52.27584 | 5.74150 | 28484 ft | 439 kts | 322° |
| 2026-05-01 08:23 | 52.30000 | 5.71084 | 28844 ft | 441 kts | 322° |
| 2026-05-01 08:23 | 52.32426 | 5.68003 | 29170 ft | 443 kts | 322° |
| 2026-05-01 08:23 | 52.34846 | 5.64868 | 29518 ft | 444 kts | 318° |
| 2026-05-01 08:23 | 52.37010 | 5.61252 | 29844 ft | 446 kts | 309° |
| 2026-05-01 08:24 | 52.38769 | 5.57156 | 30148 ft | 447 kts | 300° |
| 2026-05-01 08:24 | 52.40131 | 5.52579 | 30443 ft | 449 kts | 291° |
| 2026-05-01 08:24 | 52.41167 | 5.47750 | 30692 ft | 450 kts | 289° |
| 2026-05-01 08:24 | 52.42187 | 5.42884 | 30913 ft | 453 kts | 288° |
| 2026-05-01 08:25 | 52.43206 | 5.37994 | 31133 ft | 455 kts | 288° |
| 2026-05-01 08:25 | 52.44227 | 5.33066 | 31364 ft | 457 kts | 288° |
| 2026-05-01 08:25 | 52.45246 | 5.28137 | 31675 ft | 456 kts | 288° |
| 2026-05-01 08:25 | 52.46268 | 5.23216 | 32031 ft | 455 kts | 288° |
| 2026-05-01 08:26 | 52.47289 | 5.18304 | 32384 ft | 454 kts | 288° |
| 2026-05-01 08:26 | 52.48305 | 5.13406 | 32721 ft | 453 kts | 288° |
| 2026-05-01 08:26 | 52.49315 | 5.08512 | 33058 ft | 452 kts | 287° |
| 2026-05-01 08:26 | 52.50317 | 5.03628 | 33384 ft | 452 kts | 287° |
| 2026-05-01 08:27 | 52.51317 | 4.98736 | 33727 ft | 451 kts | 288° |
| 2026-05-01 08:27 | 52.52307 | 4.93865 | 34071 ft | 450 kts | 287° |
| 2026-05-01 08:27 | 52.53296 | 4.88982 | 34396 ft | 449 kts | 287° |
| 2026-05-01 08:27 | 52.54285 | 4.84123 | 34697 ft | 448 kts | 287° |
| 2026-05-01 08:28 | 52.55322 | 4.79310 | 34988 ft | 448 kts | 288° |
| 2026-05-01 08:28 | 52.56417 | 4.74516 | 35252 ft | 448 kts | 289° |
| 2026-05-01 08:28 | 52.57524 | 4.69810 | 35510 ft | 447 kts | 289° |
| 2026-05-01 08:28 | 52.58656 | 4.65044 | 35765 ft | 447 kts | 289° |
| 2026-05-01 08:29 | 52.59778 | 4.60279 | 36022 ft | 446 kts | 289° |
| 2026-05-01 08:29 | 52.60882 | 4.55508 | 36236 ft | 446 kts | 289° |
| 2026-05-01 08:29 | 52.61967 | 4.50740 | 36317 ft | 445 kts | 289° |
| 2026-05-01 08:30 | 52.64102 | 4.41232 | 36319 ft | 443 kts | 289° |
| 2026-05-01 08:30 | 52.66223 | 4.31715 | 36320 ft | 442 kts | 288° |
| 2026-05-01 08:31 | 52.68346 | 4.22185 | 36318 ft | 443 kts | 288° |
| 2026-05-01 08:31 | 52.70471 | 4.12661 | 36320 ft | 442 kts | 289° |
| 2026-05-01 08:32 | 52.72592 | 4.03143 | 36320 ft | 442 kts | 289° |
| 2026-05-01 08:32 | 52.74687 | 3.93671 | 36322 ft | 442 kts | 289° |
| 2026-05-01 08:33 | 52.76777 | 3.84136 | 36314 ft | 442 kts | 288° |
| 2026-05-01 08:33 | 52.78865 | 3.74579 | 36309 ft | 442 kts | 287° |
| 2026-05-01 08:34 | 52.80946 | 3.65011 | 36313 ft | 442 kts | 286° |
| 2026-05-01 08:34 | 52.83021 | 3.55440 | 36308 ft | 442 kts | 288° |
| 2026-05-01 08:35 | 52.85088 | 3.45872 | 36311 ft | 442 kts | 288° |
| 2026-05-01 08:35 | 52.87145 | 3.36280 | 36281 ft | 442 kts | 287° |
| 2026-05-01 08:36 | 52.89191 | 3.26678 | 36275 ft | 442 kts | 287° |
| 2026-05-01 08:36 | 52.91217 | 3.17134 | 36275 ft | 442 kts | 286° |
| 2026-05-01 08:37 | 52.92701 | 3.07289 | 36261 ft | 440 kts | 280° |
| 2026-05-01 08:37 | 52.94010 | 2.97381 | 36303 ft | 440 kts | 280° |
| 2026-05-01 08:38 | 52.95317 | 2.87451 | 36297 ft | 441 kts | 280° |
| 2026-05-01 08:38 | 52.96608 | 2.77528 | 36289 ft | 441 kts | 280° |
| 2026-05-01 08:39 | 52.97900 | 2.67579 | 36292 ft | 441 kts | 279° |
| 2026-05-01 08:39 | 52.99182 | 2.57626 | 36289 ft | 441 kts | 279° |
| 2026-05-01 08:40 | 53.00867 | 2.44386 | 36295 ft | 440 kts | 279° |
| 2026-05-01 08:40 | 53.02123 | 2.34423 | 36290 ft | 440 kts | 279° |
| 2026-05-01 08:41 | 53.03367 | 2.24467 | 36287 ft | 440 kts | 279° |
| 2026-05-01 08:41 | 53.04601 | 2.14512 | 36130 ft | 440 kts | 279° |
| 2026-05-01 08:42 | 53.05217 | 2.09529 | 35957 ft | 440 kts | 279° |
| 2026-05-01 08:42 | 53.05834 | 2.04539 | 35777 ft | 440 kts | 279° |
| 2026-05-01 08:42 | 53.06450 | 1.99551 | 35614 ft | 441 kts | 279° |
| 2026-05-01 08:42 | 53.07065 | 1.94560 | 35399 ft | 441 kts | 278° |
| 2026-05-01 08:43 | 53.07679 | 1.89556 | 35151 ft | 442 kts | 278° |
| 2026-05-01 08:43 | 53.08290 | 1.84555 | 34909 ft | 442 kts | 278° |
| 2026-05-01 08:43 | 53.08897 | 1.79535 | 34659 ft | 442 kts | 278° |
| 2026-05-01 08:43 | 53.09494 | 1.74585 | 34418 ft | 443 kts | 278° |
| 2026-05-01 08:44 | 53.10100 | 1.69552 | 34169 ft | 443 kts | 278° |
| 2026-05-01 08:44 | 53.10702 | 1.64516 | 33892 ft | 444 kts | 278° |
| 2026-05-01 08:44 | 53.11299 | 1.59476 | 33610 ft | 444 kts | 278° |
| 2026-05-01 08:44 | 53.11894 | 1.54446 | 33336 ft | 442 kts | 278° |
| 2026-05-01 08:45 | 53.12488 | 1.49415 | 33087 ft | 441 kts | 277° |
| 2026-05-01 08:45 | 53.13080 | 1.44404 | 32821 ft | 440 kts | 277° |
| 2026-05-01 08:45 | 53.13669 | 1.39409 | 32557 ft | 439 kts | 277° |
| 2026-05-01 08:45 | 53.14252 | 1.34443 | 32299 ft | 437 kts | 277° |
| 2026-05-01 08:46 | 53.14832 | 1.29474 | 32035 ft | 435 kts | 277° |
| 2026-05-01 08:46 | 53.15408 | 1.24529 | 31779 ft | 434 kts | 277° |
| 2026-05-01 08:46 | 53.15979 | 1.19610 | 31519 ft | 432 kts | 277° |
| 2026-05-01 08:46 | 53.16538 | 1.14757 | 31273 ft | 431 kts | 277° |
| 2026-05-01 08:47 | 53.17099 | 1.09861 | 31021 ft | 429 kts | 277° |
| 2026-05-01 08:47 | 53.17654 | 1.04978 | 30775 ft | 428 kts | 277° |
| 2026-05-01 08:47 | 53.18206 | 1.00105 | 30542 ft | 427 kts | 276° |
| 2026-05-01 08:47 | 53.18757 | 0.95247 | 30307 ft | 426 kts | 276° |
| 2026-05-01 08:48 | 53.19306 | 0.90411 | 30013 ft | 424 kts | 276° |
| 2026-05-01 08:48 | 53.19851 | 0.85590 | 29725 ft | 422 kts | 276° |
| 2026-05-01 08:48 | 53.20392 | 0.80779 | 29442 ft | 421 kts | 276° |
| 2026-05-01 08:48 | 53.20926 | 0.75996 | 29217 ft | 419 kts | 276° |
| 2026-05-01 08:49 | 53.21983 | 0.66433 | 29236 ft | 419 kts | 276° |
| 2026-05-01 08:49 | 53.23035 | 0.56869 | 29228 ft | 419 kts | 276° |
| 2026-05-01 08:50 | 53.24083 | 0.47296 | 29233 ft | 420 kts | 276° |
| 2026-05-01 08:50 | 53.25114 | 0.37756 | 28850 ft | 420 kts | 276° |
| 2026-05-01 08:51 | 53.25629 | 0.33004 | 28254 ft | 414 kts | 276° |
| 2026-05-01 08:51 | 53.26140 | 0.28285 | 27669 ft | 411 kts | 276° |
| 2026-05-01 08:51 | 53.26645 | 0.23607 | 27095 ft | 407 kts | 276° |
| 2026-05-01 08:51 | 53.27141 | 0.18963 | 26533 ft | 404 kts | 275° |
| 2026-05-01 08:52 | 53.27630 | 0.14338 | 25979 ft | 402 kts | 275° |
| 2026-05-01 08:52 | 53.28111 | 0.09764 | 25441 ft | 399 kts | 275° |
| 2026-05-01 08:52 | 53.28642 | 0.05226 | 24913 ft | 398 kts | 280° |
| 2026-05-01 08:52 | 53.29523 | 0.00831 | 24381 ft | 401 kts | 289° |
| 2026-05-01 08:53 | 53.30723 | -0.03371 | 23898 ft | 400 kts | 292° |
| 2026-05-01 08:53 | 53.31947 | -0.07528 | 23313 ft | 397 kts | 292° |
| 2026-05-01 08:53 | 53.33159 | -0.11657 | 22732 ft | 394 kts | 292° |
| 2026-05-01 08:53 | 53.34357 | -0.15748 | 22132 ft | 390 kts | 291° |
| 2026-05-01 08:54 | 53.35542 | -0.19813 | 21567 ft | 387 kts | 291° |
| 2026-05-01 08:54 | 53.36717 | -0.23858 | 21014 ft | 387 kts | 291° |
| 2026-05-01 08:54 | 53.37893 | -0.27919 | 20463 ft | 387 kts | 291° |
| 2026-05-01 08:54 | 53.39047 | -0.31912 | 19930 ft | 386 kts | 291° |
| 2026-05-01 08:55 | 53.40221 | -0.35972 | 19399 ft | 386 kts | 291° |
| 2026-05-01 08:55 | 53.41390 | -0.40019 | 18888 ft | 386 kts | 291° |
| 2026-05-01 08:55 | 53.42560 | -0.44071 | 18331 ft | 386 kts | 291° |
| 2026-05-01 08:55 | 53.43725 | -0.48122 | 17753 ft | 385 kts | 291° |
| 2026-05-01 08:56 | 53.44888 | -0.52173 | 17184 ft | 385 kts | 291° |
| 2026-05-01 08:56 | 53.46048 | -0.56221 | 16601 ft | 384 kts | 291° |
| 2026-05-01 08:56 | 53.47205 | -0.60262 | 16058 ft | 384 kts | 292° |
| 2026-05-01 08:56 | 53.48359 | -0.64292 | 15513 ft | 383 kts | 292° |
| 2026-05-01 08:57 | 53.49512 | -0.68325 | 14975 ft | 382 kts | 292° |
| 2026-05-01 08:57 | 53.50660 | -0.72345 | 14441 ft | 379 kts | 292° |
| 2026-05-01 08:57 | 53.51762 | -0.76207 | 14012 ft | 362 kts | 292° |
| 2026-05-01 08:57 | 53.52835 | -0.79970 | 13658 ft | 343 kts | 292° |
| 2026-05-01 08:58 | 53.53830 | -0.83458 | 13312 ft | 327 kts | 292° |
| 2026-05-01 08:58 | 53.54791 | -0.86841 | 12984 ft | 316 kts | 291° |
| 2026-05-01 08:58 | 53.55726 | -0.90160 | 12646 ft | 312 kts | 291° |
| 2026-05-01 08:58 | 53.56646 | -0.93452 | 12313 ft | 309 kts | 291° |